Time;durP1;ratioP1;P1;durP2;ratioP2;P2;SDS_P1;SDS_P2;PMS_P1;PMS_P2;Temp;Humidity;BMP_temperature;BMP_pressure;BME280_temperature;BME280_humidity;BME280_pressure;Samples;Min_cycle;Max_cycle;Signal;HPM_P1;HPM_P2
2021/05/05 00:00:34;;;;;;;8.38;4.80;;;;;;;14.95;62.61;98790.75;1723436;83;20179;-86
2021/05/05 00:03:00;;;;;;;5.87;4.10;;;;;;;14.75;62.66;98792.25;1711271;83;21209;-85
2021/05/05 00:05:26;;;;;;;9.05;4.00;;;;;;;14.79;62.55;98780.13;1712175;83;21195;-85
2021/05/05 00:07:52;;;;;;;8.08;4.53;;;;;;;14.91;62.31;98774.41;1715130;82;21191;-85
2021/05/05 00:10:20;;;;;;;6.28;3.60;;;;;;;14.95;62.29;98762.84;1691196;83;21305;-86
2021/05/05 00:12:46;;;;;;;6.28;3.60;;;;;;;14.83;62.39;98764.06;1713166;82;21196;-85
2021/05/05 00:15:19;;;;;;;8.95;3.70;;;;;;;14.99;62.46;98762.19;1719356;81;20953;-86
2021/05/05 00:17:46;;;;;;;7.45;3.87;;;;;;;15.20;61.75;98756.15;1713802;81;21772;-86
2021/05/05 00:20:14;;;;;;;6.28;3.77;;;;;;;15.12;61.76;98760.41;1713893;82;21555;-86
2021/05/05 00:22:40;;;;;;;5.15;3.37;;;;;;;15.19;61.36;98746.53;1708766;83;21288;-87
2021/05/05 00:25:07;;;;;;;7.40;3.60;;;;;;;15.09;61.71;98759.02;1715464;83;20978;-87
2021/05/05 00:27:33;;;;;;;7.25;3.55;;;;;;;15.09;61.57;98756.36;1718358;82;21210;-86
2021/05/05 00:29:58;;;;;;;10.40;3.67;;;;;;;15.23;61.14;98755.70;1717330;82;21614;-86
2021/05/05 00:32:26;;;;;;;7.53;3.37;;;;;;;15.01;61.78;98756.65;1717755;82;22115;-85
2021/05/05 00:34:52;;;;;;;6.60;3.77;;;;;;;15.31;61.12;98753.27;1714794;82;21097;-84
2021/05/05 00:37:18;;;;;;;5.58;3.42;;;;;;;15.25;61.05;98750.44;1711745;82;21227;-84
2021/05/05 00:39:44;;;;;;;8.18;3.40;;;;;;;15.32;61.31;98760.20;1718307;82;20953;-84
2021/05/05 00:42:09;;;;;;;6.47;3.50;;;;;;;15.40;61.01;98757.27;1715103;82;21041;-84
2021/05/05 00:44:35;;;;;;;6.40;3.42;;;;;;;15.46;60.89;98763.52;1717013;81;21026;-84
2021/05/05 00:47:01;;;;;;;6.65;3.50;;;;;;;15.37;61.22;98750.53;1714923;81;21370;-85
2021/05/05 00:49:27;;;;;;;5.35;3.37;;;;;;;15.50;61.15;98755.41;1718036;82;21099;-86
2021/05/05 00:51:53;;;;;;;5.75;3.70;;;;;;;15.73;60.51;98752.06;1719700;82;21629;-85
2021/05/05 00:54:18;;;;;;;5.80;3.60;;;;;;;15.76;60.38;98758.27;1708245;83;21630;-85
2021/05/05 00:56:44;;;;;;;5.92;3.35;;;;;;;15.85;60.04;98756.95;1712632;82;20962;-85
2021/05/05 00:59:10;;;;;;;5.78;3.27;;;;;;;15.71;60.62;98752.81;1718028;83;21091;-85
2021/05/05 01:01:39;;;;;;;10.78;3.50;;;;;;;15.58;60.81;98759.09;1711252;83;20965;-85
2021/05/05 01:04:05;;;;;;;4.78;3.10;;;;;;;15.61;60.78;98755.98;1717420;82;21223;-85
2021/05/05 01:06:31;;;;;;;6.05;3.80;;;;;;;15.51;61.17;98755.71;1716346;81;21223;-85
2021/05/05 01:08:57;;;;;;;7.58;3.87;;;;;;;15.64;60.82;98752.88;1717019;81;20953;-85
2021/05/05 01:11:23;;;;;;;6.90;3.50;;;;;;;15.52;61.12;98757.31;1721110;81;21202;-85
2021/05/05 01:13:48;;;;;;;6.30;3.67;;;;;;;15.52;61.13;98765.30;1717090;83;20915;-85
2021/05/05 01:16:15;;;;;;;6.45;3.92;;;;;;;15.51;61.30;98753.85;1713781;81;21029;-86
2021/05/05 01:18:42;;;;;;;6.65;3.50;;;;;;;15.66;60.79;98758.80;1716228;81;21569;-85
2021/05/05 01:21:08;;;;;;;5.20;3.33;;;;;;;15.13;62.34;98756.72;1710473;81;21180;-85
2021/05/05 01:23:34;;;;;;;9.20;3.77;;;;;;;15.08;62.52;98758.19;1718520;83;22005;-85
2021/05/05 01:25:59;;;;;;;7.70;3.55;;;;;;;15.29;62.00;98756.16;1714746;82;21091;-85
2021/05/05 01:28:25;;;;;;;5.67;3.30;;;;;;;15.28;62.08;98751.86;1715993;81;22684;-85
2021/05/05 01:30:51;;;;;;;8.33;3.62;;;;;;;15.27;62.15;98758.20;1716627;81;21025;-85
2021/05/05 01:33:16;;;;;;;6.40;3.45;;;;;;;15.13;62.46;98750.08;1721331;81;20989;-85
2021/05/05 01:35:44;;;;;;;5.47;3.15;;;;;;;15.21;62.57;98753.77;1711193;83;21612;-86
2021/05/05 01:38:10;;;;;;;6.72;3.55;;;;;;;14.94;63.28;98760.68;1715184;81;21190;-86
2021/05/05 01:40:38;;;;;;;5.85;3.30;;;;;;;14.99;63.20;98758.70;1716725;83;21163;-85
2021/05/05 01:43:05;;;;;;;7.10;3.22;;;;;;;14.94;63.21;98754.03;1717947;83;21168;-85
2021/05/05 01:45:31;;;;;;;6.87;3.75;;;;;;;14.69;64.13;98757.52;1713139;81;21919;-85
2021/05/05 01:48:00;;;;;;;7.85;3.65;;;;;;;14.88;63.34;98746.94;1716794;83;21195;-84
2021/05/05 01:50:27;;;;;;;5.58;3.02;;;;;;;14.90;63.27;98755.52;1715593;81;21614;-87
2021/05/05 01:52:53;;;;;;;6.50;3.50;;;;;;;14.76;63.63;98746.02;1715276;83;21194;-87
2021/05/05 01:55:19;;;;;;;4.80;2.98;;;;;;;14.68;63.73;98753.25;1713503;83;21661;-87
2021/05/05 01:57:46;;;;;;;4.92;2.85;;;;;;;14.74;63.47;98745.44;1713464;81;21454;-84
2021/05/05 02:00:20;;;;;;;4.37;3.05;;;;;;;14.87;63.02;98751.97;1714844;83;21374;-84
2021/05/05 02:02:45;;;;;;;6.55;3.10;;;;;;;14.71;63.22;98750.17;1714000;81;21182;-85
2021/05/05 02:05:12;;;;;;;5.05;3.15;;;;;;;14.77;63.06;98747.66;1696541;83;20985;-85
2021/05/05 02:07:41;;;;;;;4.50;2.95;;;;;;;14.73;63.13;98752.61;1719690;81;21184;-85
2021/05/05 02:10:09;;;;;;;4.72;3.42;;;;;;;14.81;62.86;98744.88;1717326;81;21260;-85
2021/05/05 02:12:35;;;;;;;3.70;2.60;;;;;;;14.82;62.56;98742.49;1715423;83;22179;-84
2021/05/05 02:15:00;;;;;;;6.10;3.17;;;;;;;14.81;62.48;98745.67;1710429;83;21137;-84
2021/05/05 02:17:26;;;;;;;6.22;3.15;;;;;;;14.83;62.36;98746.79;1713163;81;20964;-84
2021/05/05 02:19:52;;;;;;;6.00;3.08;;;;;;;15.01;61.88;98746.82;1716256;81;20929;-85
2021/05/05 02:22:18;;;;;;;4.25;3.00;;;;;;;15.10;61.50;98746.00;1722435;81;21031;-85
2021/05/05 02:24:43;;;;;;;4.80;2.95;;;;;;;15.04;61.48;98741.06;1716934;81;21288;-85
2021/05/05 02:27:09;;;;;;;6.80;3.10;;;;;;;15.00;61.61;98735.08;1717547;83;20977;-85
2021/05/05 02:29:35;;;;;;;6.03;3.30;;;;;;;15.10;61.25;98735.89;1710003;82;21250;-85
2021/05/05 02:32:08;;;;;;;5.87;3.02;;;;;;;15.01;61.51;98730.06;1708390;83;21009;-85
2021/05/05 02:34:35;;;;;;;5.08;3.12;;;;;;;15.01;61.58;98726.08;1711838;83;21643;-84
2021/05/05 02:37:02;;;;;;;4.90;3.00;;;;;;;14.81;61.74;98731.06;1718109;81;21190;-84
2021/05/05 02:39:27;;;;;;;6.42;3.12;;;;;;;14.88;61.53;98717.70;1714184;83;21180;-85
2021/05/05 02:41:53;;;;;;;4.85;3.00;;;;;;;14.66;61.89;98721.28;1714887;82;20964;-84
2021/05/05 02:44:19;;;;;;;4.42;3.10;;;;;;;14.71;61.85;98728.08;1712644;83;20953;-85
2021/05/05 02:46:45;;;;;;;5.42;3.20;;;;;;;14.80;61.53;98731.28;1712817;82;21089;-85
2021/05/05 02:49:10;;;;;;;5.78;3.20;;;;;;;14.77;61.66;98725.88;1719091;81;22665;-85
2021/05/05 02:51:36;;;;;;;5.87;3.25;;;;;;;14.69;61.79;98724.31;1716764;83;21098;-85
2021/05/05 02:54:03;;;;;;;5.53;3.40;;;;;;;14.74;61.58;98722.84;1719087;83;21052;-85
2021/05/05 02:56:29;;;;;;;5.42;3.30;;;;;;;14.81;61.42;98722.28;1720147;81;21235;-85
2021/05/05 02:58:55;;;;;;;6.83;3.05;;;;;;;14.70;61.85;98725.94;1707406;83;21211;-85
2021/05/05 03:01:21;;;;;;;8.23;3.30;;;;;;;14.72;61.92;98725.20;1714654;82;21279;-85
2021/05/05 03:03:47;;;;;;;6.10;3.55;;;;;;;14.72;61.82;98713.24;1714317;82;21255;-85
2021/05/05 03:06:12;;;;;;;6.97;3.52;;;;;;;14.75;61.91;98715.19;1716691;82;20966;-85
2021/05/05 03:08:38;;;;;;;7.45;3.90;;;;;;;14.79;61.72;98717.69;1712767;83;20949;-86
2021/05/05 03:11:04;;;;;;;8.38;4.00;;;;;;;14.76;61.86;98717.62;1714882;82;20949;-86
2021/05/05 03:13:30;;;;;;;8.30;4.20;;;;;;;14.63;62.34;98721.72;1723380;83;21398;-85
2021/05/05 03:15:55;;;;;;;7.37;3.80;;;;;;;14.57;62.54;98713.26;1716923;83;21406;-85
2021/05/05 03:18:21;;;;;;;9.48;4.55;;;;;;;14.65;62.28;98708.52;1713438;81;20977;-85
2021/05/05 03:20:47;;;;;;;13.72;4.30;;;;;;;14.71;62.02;98716.12;1716924;83;21131;-84
2021/05/05 03:23:13;;;;;;;7.83;4.15;;;;;;;14.65;62.32;98711.18;1713338;81;20969;-85
2021/05/05 03:25:40;;;;;;;9.00;3.62;;;;;;;14.56;62.48;98715.11;1710027;83;21777;-84
2021/05/05 03:28:06;;;;;;;7.83;4.37;;;;;;;14.68;62.44;98726.69;1704640;82;21198;-84
2021/05/05 03:30:32;;;;;;;9.15;4.00;;;;;;;14.77;62.06;98725.88;1712049;83;21214;-84
2021/05/05 03:32:59;;;;;;;6.90;3.90;;;;;;;14.81;61.94;98728.41;1717614;82;20905;-85
2021/05/05 03:35:25;;;;;;;;;;;;;;;14.82;62.03;98726.55;1722188;81;21690;-85
2021/05/05 03:37:51;;;;;;;8.88;4.55;;;;;;;14.88;61.70;98728.33;1714296;81;21197;-86
2021/05/05 03:40:16;;;;;;;7.28;3.72;;;;;;;14.63;62.13;98721.19;1705904;83;20981;-86
2021/05/05 03:42:43;;;;;;;7.05;3.80;;;;;;;14.75;61.79;98725.29;1719447;82;21441;-86
2021/05/05 03:45:10;;;;;;;8.25;3.75;;;;;;;14.83;61.38;98735.63;1712101;82;21188;-86
2021/05/05 03:47:37;;;;;;;5.97;3.33;;;;;;;14.76;61.68;98740.70;1711305;83;21252;-86
2021/05/05 03:50:05;;;;;;;7.47;3.52;;;;;;;14.98;61.12;98741.94;1690237;83;21448;-86
2021/05/05 03:52:33;;;;;;;7.28;3.17;;;;;;;14.98;61.08;98743.27;1707114;82;21526;-86
2021/05/05 03:54:59;;;;;;;;;;;;;;;15.07;60.64;98745.11;1697949;83;21153;-86
2021/05/05 03:57:25;;;;;;;5.92;3.00;;;;;;;15.09;60.59;98741.73;1718811;82;20215;-86
2021/05/05 03:59:53;;;;;;;5.30;3.50;;;;;;;15.17;60.29;98741.96;1714156;83;20932;-86
2021/05/05 04:02:21;;;;;;;5.40;3.70;;;;;;;15.20;60.24;98744.98;1687481;83;22683;-87
2021/05/05 04:04:49;;;;;;;7.80;3.60;;;;;;;15.22;60.15;98747.42;1715178;83;21191;-85
2021/05/05 04:07:17;;;;;;;5.92;3.35;;;;;;;15.30;59.94;98747.12;1716981;83;21204;-85
2021/05/05 04:09:44;;;;;;;;;;;;;;;15.31;60.01;98750.61;1725167;83;21192;-86
2021/05/05 04:12:11;;;;;;;6.70;3.55;;;;;;;14.99;59.98;98746.23;1722022;82;20275;-85
2021/05/05 04:14:37;;;;;;;7.95;3.62;;;;;;;15.19;59.83;98739.89;1717914;82;21223;-84
2021/05/05 04:17:03;;;;;;;6.10;3.40;;;;;;;15.13;60.16;98739.44;1710968;83;20961;-84
2021/05/05 04:19:29;;;;;;;5.50;3.10;;;;;;;15.24;59.95;98745.34;1719030;83;21032;-84
2021/05/05 04:21:54;;;;;;;5.45;3.22;;;;;;;15.11;60.09;98743.65;1720178;81;21008;-83
2021/05/05 04:24:20;;;;;;;6.15;3.50;;;;;;;15.17;59.96;98747.28;1724827;81;21070;-83
2021/05/05 04:26:48;;;;;;;6.65;3.42;;;;;;;15.04;60.10;98759.67;1715580;82;21330;-83
2021/05/05 04:29:14;;;;;;;5.20;3.40;;;;;;;15.06;60.09;98754.94;1715798;83;21187;-84
2021/05/05 04:31:40;;;;;;;5.45;3.20;;;;;;;15.05;60.12;98757.82;1716356;82;21041;-83
2021/05/05 04:34:07;;;;;;;5.12;3.20;;;;;;;14.83;60.73;98752.10;1712883;82;20968;-84
2021/05/05 04:36:34;;;;;;;6.33;3.55;;;;;;;15.04;60.08;98750.37;1683478;83;21246;-85
2021/05/05 04:39:00;;;;;;;;;;;;;;;15.18;59.80;98752.88;1714739;82;21708;-86
2021/05/05 04:41:26;;;;;;;9.28;3.40;;;;;;;15.05;60.15;98758.63;1713417;82;20808;-85
2021/05/05 04:43:51;;;;;;;6.62;3.20;;;;;;;15.14;59.91;98751.71;1714073;82;20989;-86
2021/05/05 04:46:17;;;;;;;4.87;3.20;;;;;;;15.34;59.31;98756.30;1714168;82;20961;-85
2021/05/05 04:48:43;;;;;;;5.60;2.95;;;;;;;15.54;58.95;98752.61;1711356;81;21050;-85
2021/05/05 04:51:09;;;;;;;7.00;3.08;;;;;;;15.66;58.54;98748.16;1718424;82;21420;-85
2021/05/05 04:53:34;;;;;;;6.83;3.27;;;;;;;15.72;58.71;98753.09;1717441;82;20962;-85
2021/05/05 04:56:00;;;;;;;5.90;2.90;;;;;;;15.78;58.19;98746.40;1717641;83;20975;-85
2021/05/05 04:58:26;;;;;;;4.15;2.75;;;;;;;15.84;57.94;98750.52;1715341;81;21493;-86
2021/05/05 05:00:52;;;;;;;4.90;2.83;;;;;;;16.01;57.65;98752.84;1715715;81;20965;-85
2021/05/05 05:03:18;;;;;;;4.85;2.90;;;;;;;15.95;57.47;98748.42;1710106;81;21240;-84
2021/05/05 05:05:43;;;;;;;5.20;2.58;;;;;;;16.12;57.00;98753.39;1718020;81;20998;-84
2021/05/05 05:08:09;;;;;;;6.17;3.02;;;;;;;15.92;56.82;98756.86;1715296;82;21036;-83
2021/05/05 05:10:35;;;;;;;5.28;2.92;;;;;;;16.22;56.33;98766.68;1716094;82;21004;-85
2021/05/05 05:13:01;;;;;;;6.03;2.90;;;;;;;16.37;56.17;98765.73;1713644;81;20969;-85
2021/05/05 05:15:27;;;;;;;5.47;3.02;;;;;;;16.10;56.58;98761.34;1707248;83;21302;-88
2021/05/05 05:17:54;;;;;;;4.42;3.08;;;;;;;16.38;56.46;98752.72;1716402;82;21166;-86
2021/05/05 05:20:20;;;;;;;6.78;3.12;;;;;;;16.34;56.42;98751.55;1708900;81;21264;-84
2021/05/05 05:22:46;;;;;;;8.08;3.25;;;;;;;16.37;56.33;98753.75;1711505;81;21127;-85
2021/05/05 05:25:12;;;;;;;7.78;3.30;;;;;;;16.26;56.47;98759.87;1706872;83;21745;-84
2021/05/05 05:27:39;;;;;;;5.37;3.20;;;;;;;16.34;56.10;98756.87;1713781;81;21270;-87
2021/05/05 05:30:07;;;;;;;5.53;2.98;;;;;;;16.41;56.13;98760.25;1714592;83;21195;-86
2021/05/05 05:32:34;;;;;;;9.18;3.30;;;;;;;16.54;56.02;98759.76;1713179;81;21235;-85
2021/05/05 05:34:59;;;;;;;6.33;3.37;;;;;;;16.39;55.69;98751.69;1716714;81;21198;-85
2021/05/05 05:37:25;;;;;;;7.87;3.40;;;;;;;16.40;55.65;98761.28;1713331;81;21006;-85
2021/05/05 05:39:51;;;;;;;6.30;3.40;;;;;;;16.51;55.79;98760.52;1716787;81;21075;-88
2021/05/05 05:42:17;;;;;;;6.33;3.60;;;;;;;16.19;56.13;98756.48;1718409;81;21117;-86
2021/05/05 05:44:42;;;;;;;5.97;3.35;;;;;;;16.58;55.45;98752.91;1718185;81;21024;-84
2021/05/05 05:47:08;;;;;;;6.70;2.72;;;;;;;16.53;55.00;98748.80;1709566;81;20956;-84
2021/05/05 05:49:34;;;;;;;5.03;2.83;;;;;;;16.58;54.74;98752.41;1713569;81;20969;-83
2021/05/05 05:52:00;;;;;;;4.50;2.60;;;;;;;16.82;54.23;98755.09;1717899;81;21248;-85
2021/05/05 05:54:26;;;;;;;5.33;2.87;;;;;;;16.57;53.97;98760.10;1717930;81;21156;-87
2021/05/05 05:56:52;;;;;;;4.22;2.47;;;;;;;16.78;53.79;98756.08;1716255;81;21226;-86
2021/05/05 05:59:17;;;;;;;4.45;2.58;;;;;;;16.53;53.77;98749.63;1716456;81;21443;-85
2021/05/05 06:01:43;;;;;;;3.72;2.58;;;;;;;16.81;53.72;98759.63;1715477;81;21336;-84
2021/05/05 06:04:11;;;;;;;4.45;2.55;;;;;;;16.71;54.01;98756.70;1706184;82;21226;-86
2021/05/05 06:06:37;;;;;;;4.70;2.45;;;;;;;16.79;53.71;98748.35;1716643;81;21296;-84
2021/05/05 06:09:03;;;;;;;4.47;2.50;;;;;;;16.73;53.38;98755.94;1717114;83;21190;-84
2021/05/05 06:11:29;;;;;;;5.28;2.87;;;;;;;16.84;53.52;98745.83;1709460;81;21172;-84
2021/05/05 06:13:55;;;;;;;3.85;2.15;;;;;;;16.57;53.28;98746.78;1706946;82;21048;-84
2021/05/05 06:16:21;;;;;;;5.33;2.60;;;;;;;17.01;52.94;98753.97;1716967;81;21442;-84
2021/05/05 06:18:46;;;;;;;4.65;2.20;;;;;;;16.68;53.07;98736.64;1717782;81;21086;-84
2021/05/05 06:21:12;;;;;;;3.15;2.37;;;;;;;16.66;52.97;98732.60;1704927;82;21137;-84
2021/05/05 06:23:38;;;;;;;4.05;2.30;;;;;;;16.89;52.40;98739.83;1710067;81;20953;-85
2021/05/05 06:26:05;;;;;;;3.35;2.22;;;;;;;17.00;52.33;98738.20;1713655;81;20956;-83
2021/05/05 06:28:31;;;;;;;;;;;;;;;17.17;52.17;98733.77;1718981;81;21405;-83
2021/05/05 06:31:00;;;;;;;5.35;2.50;;;;;;;17.05;52.43;98731.11;1712528;81;20286;-81
2021/05/05 06:33:27;;;;;;;5.35;2.58;;;;;;;17.11;52.34;98732.05;1711039;81;21182;-82
2021/05/05 06:35:53;;;;;;;3.65;2.17;;;;;;;17.16;52.10;98726.80;1713597;81;22198;-85
2021/05/05 06:38:19;;;;;;;5.25;2.60;;;;;;;17.25;51.97;98729.94;1712517;81;21203;-84
2021/05/05 06:40:45;;;;;;;5.92;2.72;;;;;;;17.21;52.10;98716.27;1713800;81;22023;-83
2021/05/05 06:43:11;;;;;;;4.00;2.37;;;;;;;17.03;52.14;98732.41;1711642;81;21756;-83
2021/05/05 06:45:36;;;;;;;4.85;2.30;;;;;;;17.33;52.06;98726.89;1714667;81;20985;-86
2021/05/05 06:48:03;;;;;;;3.55;2.40;;;;;;;17.10;52.25;98726.94;1707643;81;21047;-82
2021/05/05 06:50:29;;;;;;;6.33;2.60;;;;;;;17.27;51.67;98714.49;1715390;81;21187;-81
2021/05/05 06:52:57;;;;;;;5.67;2.50;;;;;;;17.18;52.28;98718.56;1709970;81;22141;-80
2021/05/05 06:55:23;;;;;;;3.92;2.40;;;;;;;17.39;51.84;98718.48;1711226;81;21198;-81
2021/05/05 06:57:50;;;;;;;3.45;2.42;;;;;;;17.58;51.40;98706.57;1715069;81;21196;-84
2021/05/05 07:00:17;;;;;;;3.42;2.17;;;;;;;17.83;50.86;98715.31;1717013;81;21198;-82
2021/05/05 07:02:43;;;;;;;4.20;2.33;;;;;;;17.83;49.77;98714.78;1714166;81;21179;-82
2021/05/05 07:05:10;;;;;;;3.83;1.90;;;;;;;17.72;49.91;98712.97;1711951;81;21122;-82
2021/05/05 07:07:36;;;;;;;3.30;1.60;;;;;;;17.33;48.80;98716.75;1712448;81;27015;-84
2021/05/05 07:10:03;;;;;;;4.47;1.67;;;;;;;17.16;47.72;98716.14;1710651;81;20975;-84
2021/05/05 07:12:29;;;;;;;4.10;1.70;;;;;;;17.19;47.06;98718.33;1712497;81;21675;-82
2021/05/05 07:14:54;;;;;;;5.28;1.77;;;;;;;17.23;46.86;98716.83;1714049;81;21082;-85
2021/05/05 07:17:20;;;;;;;5.80;1.80;;;;;;;16.86;46.86;98727.77;1709170;81;21216;-81
2021/05/05 07:19:46;;;;;;;4.80;1.70;;;;;;;17.18;46.77;98716.73;1714514;81;20997;-82
2021/05/05 07:22:12;;;;;;;4.97;1.70;;;;;;;17.34;46.60;98710.35;1713740;81;21212;-83
2021/05/05 07:24:39;;;;;;;3.25;1.65;;;;;;;17.39;46.60;98713.14;1707357;81;20954;-85
2021/05/05 07:27:05;;;;;;;3.58;1.55;;;;;;;17.30;47.05;98719.89;1713463;81;21586;-82
2021/05/05 07:29:31;;;;;;;3.35;1.70;;;;;;;17.20;46.78;98700.49;1717589;81;21247;-81
2021/05/05 07:31:56;;;;;;;4.10;1.65;;;;;;;17.61;46.28;98703.16;1714522;81;21305;-85
2021/05/05 07:34:24;;;;;;;5.20;1.62;;;;;;;17.94;45.82;98707.80;1717405;83;21072;-85
2021/05/05 07:36:51;;;;;;;3.90;1.50;;;;;;;17.66;45.70;98699.23;1714935;83;21183;-86
2021/05/05 07:49:21;;;;;;;3.58;1.70;;;;;;;18.00;45.40;98700.69;1716245;81;20960;-86
2021/05/05 07:51:47;;;;;;;4.50;1.62;;;;;;;18.09;44.78;98685.89;1717919;83;21163;-86
2021/05/05 07:54:13;;;;;;;3.75;1.90;;;;;;;18.19;45.09;98695.39;1718838;81;21192;-85
2021/05/05 07:56:40;;;;;;;3.67;1.60;;;;;;;17.72;45.37;98700.42;1714623;83;21698;-86
2021/05/05 07:59:06;;;;;;;3.40;1.90;;;;;;;17.97;45.02;98690.48;1715207;81;21195;-85
2021/05/05 08:01:32;;;;;;;4.42;1.82;;;;;;;18.07;44.88;98701.33;1719742;81;20977;-85
2021/05/05 08:03:59;;;;;;;4.28;1.82;;;;;;;18.01;45.17;98707.13;1715265;81;21203;-84
2021/05/05 08:06:25;;;;;;;4.28;1.70;;;;;;;17.77;46.02;98694.38;1717980;83;21361;-86
2021/05/05 08:08:52;;;;;;;4.73;2.20;;;;;;;17.63;45.91;98680.50;1716672;83;21195;-82
2021/05/05 08:11:18;;;;;;;3.27;1.90;;;;;;;17.72;46.29;98675.06;1685815;82;21236;-83
2021/05/05 08:13:46;;;;;;;4.83;1.67;;;;;;;17.92;46.03;98679.19;1718617;81;21578;-83
2021/05/05 08:16:14;;;;;;;4.15;2.00;;;;;;;17.98;45.91;98679.56;1710843;81;21218;-83
2021/05/05 08:18:39;;;;;;;5.08;1.90;;;;;;;17.82;46.20;98676.30;1735037;80;21202;-85
2021/05/05 08:21:07;;;;;;;4.53;2.17;;;;;;;18.14;46.11;98669.94;1715251;82;20917;-87
2021/05/05 08:23:34;;;;;;;3.80;1.95;;;;;;;18.29;46.48;98674.20;1716081;83;21179;-83
2021/05/05 08:25:59;;;;;;;4.03;2.02;;;;;;;18.43;46.08;98685.91;1710173;82;21211;-87
2021/05/05 08:28:25;;;;;;;3.72;2.05;;;;;;;17.93;46.13;98677.61;1706469;82;21026;-85
2021/05/05 08:30:51;;;;;;;3.47;2.10;;;;;;;17.72;47.04;98687.61;1708806;81;21331;-84
2021/05/05 08:33:19;;;;;;;7.45;2.20;;;;;;;17.56;47.52;98685.19;1715300;81;21626;-85
2021/05/05 08:35:45;;;;;;;6.65;2.27;;;;;;;17.61;47.88;98673.80;1712550;82;21175;-83
2021/05/05 08:38:10;;;;;;;4.97;2.40;;;;;;;17.54;48.16;98677.42;1708766;81;20922;-84
2021/05/05 08:40:36;;;;;;;4.65;2.47;;;;;;;17.54;48.63;98676.59;1712129;83;20941;-81
2021/05/05 08:43:02;;;;;;;5.62;2.30;;;;;;;17.19;49.51;98688.19;1710509;83;21258;-81
2021/05/05 08:45:29;;;;;;;3.62;2.00;;;;;;;17.15;50.00;98687.86;1713681;82;20909;-83
2021/05/05 08:47:58;;;;;;;4.75;2.15;;;;;;;17.19;49.81;98679.66;1686386;83;34291;-83
2021/05/05 08:50:31;;;;;;;6.97;2.15;;;;;;;17.50;48.91;98675.46;1673161;84;22450;-84
2021/05/05 08:52:57;;;;;;;4.42;2.10;;;;;;;17.76;48.56;98679.42;1665429;85;21202;-84
2021/05/05 08:55:24;;;;;;;4.08;1.98;;;;;;;17.55;49.01;98672.88;1653290;84;21268;-84
2021/05/05 08:57:50;;;;;;;3.98;1.90;;;;;;;17.41;49.53;98683.82;1688251;83;21196;-84
2021/05/05 09:00:24;;;;;;;8.83;2.40;;;;;;;17.92;48.77;98669.30;1653302;85;21051;-86
2021/05/05 09:02:50;;;;;;;4.75;2.20;;;;;;;17.87;48.80;98667.86;1650446;84;21237;-84
2021/05/05 09:05:16;;;;;;;4.47;2.40;;;;;;;17.86;48.56;98684.92;1672095;84;20960;-86
2021/05/05 09:07:43;;;;;;;3.90;2.05;;;;;;;17.64;48.93;98686.66;1674250;84;21287;-86
2021/05/05 09:10:14;;;;;;;;;;;;;;;17.65;49.35;98678.92;1675331;84;21172;-84
2021/05/05 09:12:41;;;;;;;5.95;2.40;;;;;;;17.46;50.10;98672.44;1651841;84;20442;-85
2021/05/05 09:15:18;;;;;;;4.78;2.10;;;;;;;17.54;49.18;98674.75;1671223;84;21175;-83
2021/05/05 09:17:49;;;;;;;6.27;2.40;;;;;;;17.78;48.63;98675.97;1651825;84;21099;-83
2021/05/05 09:20:32;;;;;;;7.08;2.27;;;;;;;17.65;47.99;98682.93;1693126;82;21320;-82
2021/05/05 09:23:06;;;;;;;3.87;1.95;;;;;;;17.49;48.33;98678.62;1687130;84;21720;-86
2021/05/05 09:25:37;;;;;;;5.90;2.20;;;;;;;17.19;49.51;98681.52;1693260;84;21191;-84
2021/05/05 09:28:19;;;;;;;4.80;1.92;;;;;;;17.45;49.24;98698.86;1688023;84;21241;-88
2021/05/05 09:30:54;;;;;;;5.35;2.00;;;;;;;17.40;49.37;98692.06;1690767;82;21202;-87
2021/05/05 09:33:33;;;;;;;5.97;1.98;;;;;;;17.50;49.98;98686.94;1689837;84;21205;-83
2021/05/05 09:36:02;;;;;;;6.80;1.82;;;;;;;17.20;51.07;98687.95;1689094;82;21700;-83
2021/05/05 09:38:40;;;;;;;2.95;1.98;;;;;;;16.99;52.38;98684.03;1649084;86;21718;-81
2021/05/05 09:41:06;;;;;;;3.65;2.12;;;;;;;16.72;54.29;98685.03;1658266;85;21283;-83
2021/05/05 09:43:36;;;;;;;3.55;1.72;;;;;;;16.93;54.07;98689.50;1650831;84;21061;-83
2021/05/05 09:46:03;;;;;;;4.58;2.00;;;;;;;16.78;53.94;98676.10;1659994;84;21994;-83
2021/05/05 09:48:29;;;;;;;4.92;2.15;;;;;;;16.89;54.05;98679.00;1663288;84;21300;-83
2021/05/05 09:50:59;;;;;;;4.30;2.05;;;;;;;16.62;54.83;98678.12;1657322;85;20979;-85
2021/05/05 09:53:33;;;;;;;4.55;1.98;;;;;;;16.78;54.79;98677.94;1650564;84;21193;-83
2021/05/05 09:56:05;;;;;;;8.10;1.90;;;;;;;16.70;54.38;98683.09;1659208;86;21210;-80
2021/05/05 09:58:44;;;;;;;3.15;1.90;;;;;;;16.55;54.62;98676.92;1657951;84;21378;-83
2021/05/05 10:01:15;;;;;;;4.58;2.20;;;;;;;16.76;54.68;98682.17;1660061;84;21203;-84
2021/05/05 10:03:52;;;;;;;4.87;1.90;;;;;;;17.11;52.78;98673.36;1658835;86;21224;-82
2021/05/05 10:06:37;;;;;;;3.23;2.10;;;;;;;17.33;52.44;98676.73;1654196;85;21187;-83
2021/05/05 10:09:09;;;;;;;5.03;2.00;;;;;;;17.09;52.73;98687.97;1678367;83;21235;-85
2021/05/05 10:11:45;;;;;;;4.75;2.20;;;;;;;17.18;52.70;98684.72;1675147;84;21239;-83
2021/05/05 10:14:16;;;;;;;2.90;1.72;;;;;;;16.83;53.98;98686.88;1657094;84;21259;-84
2021/05/05 10:16:49;;;;;;;3.37;1.92;;;;;;;16.58;55.33;98694.28;1675810;84;21196;-82
2021/05/05 10:19:21;;;;;;;4.55;2.05;;;;;;;16.69;56.48;98698.30;1653328;85;21172;-85
2021/05/05 10:22:00;;;;;;;3.83;1.90;;;;;;;16.55;58.06;98684.11;1676227;84;21184;-80
2021/05/05 10:24:27;;;;;;;6.60;2.10;;;;;;;16.33;59.36;98690.00;1673474;84;21236;-83
2021/05/05 10:26:53;;;;;;;3.77;2.05;;;;;;;16.30;59.73;98696.59;1680310;83;21706;-85
2021/05/05 10:29:19;;;;;;;3.12;1.80;;;;;;;16.23;60.49;98695.87;1656764;84;21076;-84
2021/05/05 10:31:55;;;;;;;6.75;1.95;;;;;;;15.67;62.88;98696.54;1654135;85;21675;-84
2021/05/05 10:34:23;;;;;;;3.17;1.95;;;;;;;15.77;63.03;98708.83;1650544;85;21728;-82
2021/05/05 10:36:55;;;;;;;2.58;1.80;;;;;;;15.58;64.38;98696.06;1634176;85;21277;-80
2021/05/05 10:39:26;;;;;;;5.83;2.10;;;;;;;15.74;64.05;98701.27;1630255;86;21274;-83
2021/05/05 10:42:17;;;;;;;6.22;2.20;;;;;;;15.72;64.08;98711.34;1654308;85;21240;-80
2021/05/05 10:44:53;;;;;;;4.30;2.00;;;;;;;15.46;64.20;98693.03;1655258;85;21210;-81
2021/05/05 10:47:33;;;;;;;2.98;2.00;;;;;;;15.71;64.27;98703.05;1652338;85;21140;-81
2021/05/05 10:50:07;;;;;;;3.17;2.10;;;;;;;15.42;65.46;98700.66;1663097;84;21643;-78
2021/05/05 10:52:54;;;;;;;4.05;2.20;;;;;;;15.43;65.52;98708.94;1652589;85;21080;-79
2021/05/05 10:55:34;;;;;;;;;;;;;;;15.52;65.32;98704.11;1658481;85;21164;-81
2021/05/05 10:58:13;;;;;;;2.95;1.77;;;;;;;15.37;66.72;98713.81;1655649;84;20426;-83
2021/05/05 11:00:51;;;;;;;3.90;2.25;;;;;;;15.57;66.02;98717.57;1662058;84;21681;-81
2021/05/05 11:03:18;;;;;;;3.60;2.10;;;;;;;15.48;67.26;98716.25;1639402;85;21820;-81
2021/05/05 11:05:45;;;;;;;6.22;2.37;;;;;;;15.59;67.11;98716.29;1652611;85;21223;-81
2021/05/05 11:08:27;;;;;;;3.98;2.22;;;;;;;15.62;67.43;98715.84;1650363;84;21618;-80
2021/05/05 11:10:57;;;;;;;5.72;2.50;;;;;;;15.75;67.38;98717.54;1653028;85;21260;-81
2021/05/05 11:13:30;;;;;;;4.78;2.20;;;;;;;15.67;68.13;98716.50;1667682;84;21201;-79
2021/05/05 11:15:56;;;;;;;3.80;2.37;;;;;;;15.71;68.25;98713.69;1653892;85;21211;-80
2021/05/05 11:18:35;;;;;;;5.58;2.90;;;;;;;15.76;68.05;98716.48;1656076;85;21211;-78
2021/05/05 11:21:09;;;;;;;6.93;3.00;;;;;;;15.31;70.48;98726.67;1658750;85;21214;-77
2021/05/05 11:23:46;;;;;;;4.92;2.85;;;;;;;15.31;70.48;98726.67;1654936;84;22257;-82
2021/05/05 11:26:26;;;;;;;4.83;2.90;;;;;;;15.46;70.08;98716.47;1654990;85;21214;-77
2021/05/05 11:28:59;;;;;;;4.42;2.77;;;;;;;15.55;70.46;98716.95;1657352;84;21243;-81
2021/05/05 11:31:53;;;;;;;5.72;2.80;;;;;;;15.51;70.38;98718.46;1657335;84;21504;-83
2021/05/05 11:34:26;;;;;;;4.78;2.85;;;;;;;15.13;72.11;98730.94;1659536;85;21187;-79
2021/05/05 11:37:09;;;;;;;4.90;3.25;;;;;;;15.16;72.78;98731.02;1657501;84;21177;-84
2021/05/05 11:39:44;;;;;;;5.03;3.08;;;;;;;15.18;72.54;98719.64;1653305;84;21638;-83
2021/05/05 11:42:20;;;;;;;7.65;3.27;;;;;;;15.31;72.72;98719.50;1656768;84;21199;-81
2021/05/05 11:44:53;;;;;;;9.10;3.33;;;;;;;15.07;73.24;98728.66;1654922;85;21295;-80
2021/05/05 11:47:34;;;;;;;4.50;3.08;;;;;;;14.96;73.73;98735.21;1662115;84;21187;-80